sensor_id;sensor_type;location;lat;lon;timestamp;P1;durP1;ratioP1;P2;durP2;ratioP2
25391;SDS011;13329;48.402;11.718;2022-07-29T00:02:17;2.30;;;1.88;;
25391;SDS011;13329;48.402;11.718;2022-07-29T00:04:42;3.00;;;1.80;;
25391;SDS011;13329;48.402;11.718;2022-07-29T00:07:07;3.75;;;2.00;;
25391;SDS011;13329;48.402;11.718;2022-07-29T00:09:32;2.40;;;1.80;;
25391;SDS011;13329;48.402;11.718;2022-07-29T00:11:59;3.20;;;2.00;;
25391;SDS011;13329;48.402;11.718;2022-07-29T00:14:24;3.10;;;1.80;;
25391;SDS011;13329;48.402;11.718;2022-07-29T00:16:49;3.63;;;2.03;;
25391;SDS011;13329;48.402;11.718;2022-07-29T00:19:14;2.40;;;1.80;;
25391;SDS011;13329;48.402;11.718;2022-07-29T00:21:40;2.10;;;1.80;;
25391;SDS011;13329;48.402;11.718;2022-07-29T00:24:06;4.32;;;1.63;;
25391;SDS011;13329;48.402;11.718;2022-07-29T00:26:31;2.97;;;1.75;;
25391;SDS011;13329;48.402;11.718;2022-07-29T00:29:00;1.95;;;1.75;;
25391;SDS011;13329;48.402;11.718;2022-07-29T00:31:25;2.55;;;1.50;;
25391;SDS011;13329;48.402;11.718;2022-07-29T00:33:51;2.72;;;1.67;;
25391;SDS011;13329;48.402;11.718;2022-07-29T00:36:16;2.43;;;1.87;;
25391;SDS011;13329;48.402;11.718;2022-07-29T00:38:41;2.25;;;1.60;;
25391;SDS011;13329;48.402;11.718;2022-07-29T00:41:09;1.52;;;1.42;;
25391;SDS011;13329;48.402;11.718;2022-07-29T00:43:35;3.00;;;1.70;;
25391;SDS011;13329;48.402;11.718;2022-07-29T00:46:00;3.17;;;2.07;;
25391;SDS011;13329;48.402;11.718;2022-07-29T00:48:25;1.63;;;1.37;;
25391;SDS011;13329;48.402;11.718;2022-07-29T00:50:50;2.63;;;1.73;;
25391;SDS011;13329;48.402;11.718;2022-07-29T00:53:15;2.17;;;1.60;;
25391;SDS011;13329;48.402;11.718;2022-07-29T00:55:41;2.73;;;1.70;;
25391;SDS011;13329;48.402;11.718;2022-07-29T00:58:06;1.83;;;1.50;;
25391;SDS011;13329;48.402;11.718;2022-07-29T01:00:31;1.73;;;1.43;;
25391;SDS011;13329;48.402;11.718;2022-07-29T01:02:56;2.30;;;1.50;;
25391;SDS011;13329;48.402;11.718;2022-07-29T01:05:22;2.53;;;1.57;;
25391;SDS011;13329;48.402;11.718;2022-07-29T01:07:49;2.38;;;1.65;;
25391;SDS011;13329;48.402;11.718;2022-07-29T01:10:14;2.20;;;1.80;;
25391;SDS011;13329;48.402;11.718;2022-07-29T01:12:40;2.05;;;1.70;;
25391;SDS011;13329;48.402;11.718;2022-07-29T01:15:07;3.92;;;1.90;;
25391;SDS011;13329;48.402;11.718;2022-07-29T01:17:50;2.55;;;1.75;;
25391;SDS011;13329;48.402;11.718;2022-07-29T01:28:08;6.38;;;2.13;;
25391;SDS011;13329;48.402;11.718;2022-07-29T01:30:39;3.63;;;1.95;;
25391;SDS011;13329;48.402;11.718;2022-07-29T01:33:07;3.35;;;2.10;;
25391;SDS011;13329;48.402;11.718;2022-07-29T01:35:43;2.80;;;1.63;;
25391;SDS011;13329;48.402;11.718;2022-07-29T01:38:22;2.78;;;2.00;;
25391;SDS011;13329;48.402;11.718;2022-07-29T01:40:51;2.72;;;2.03;;
25391;SDS011;13329;48.402;11.718;2022-07-29T01:43:31;3.15;;;2.08;;
25391;SDS011;13329;48.402;11.718;2022-07-29T01:46:01;3.22;;;1.92;;
25391;SDS011;13329;48.402;11.718;2022-07-29T01:48:39;3.05;;;1.90;;
25391;SDS011;13329;48.402;11.718;2022-07-29T01:51:11;4.05;;;2.05;;
25391;SDS011;13329;48.402;11.718;2022-07-29T01:53:39;3.67;;;1.70;;
25391;SDS011;13329;48.402;11.718;2022-07-29T01:56:07;4.80;;;1.88;;
25391;SDS011;13329;48.402;11.718;2022-07-29T01:58:33;4.57;;;1.73;;
25391;SDS011;13329;48.402;11.718;2022-07-29T02:01:00;3.97;;;2.00;;
25391;SDS011;13329;48.402;11.718;2022-07-29T02:03:25;2.15;;;1.60;;
25391;SDS011;13329;48.402;11.718;2022-07-29T02:05:51;4.70;;;1.83;;
25391;SDS011;13329;48.402;11.718;2022-07-29T02:08:17;4.10;;;2.00;;
25391;SDS011;13329;48.402;11.718;2022-07-29T02:10:44;4.13;;;1.90;;
25391;SDS011;13329;48.402;11.718;2022-07-29T02:13:10;3.50;;;1.85;;
25391;SDS011;13329;48.402;11.718;2022-07-29T02:15:36;2.55;;;1.60;;
25391;SDS011;13329;48.402;11.718;2022-07-29T02:18:07;2.45;;;1.70;;
25391;SDS011;13329;48.402;11.718;2022-07-29T02:20:33;2.42;;;1.70;;
25391;SDS011;13329;48.402;11.718;2022-07-29T02:22:58;4.65;;;1.92;;
25391;SDS011;13329;48.402;11.718;2022-07-29T02:25:24;2.80;;;1.60;;
25391;SDS011;13329;48.402;11.718;2022-07-29T02:27:50;1.75;;;1.52;;
25391;SDS011;13329;48.402;11.718;2022-07-29T02:30:16;3.58;;;1.50;;
25391;SDS011;13329;48.402;11.718;2022-07-29T02:32:41;4.32;;;1.75;;
25391;SDS011;13329;48.402;11.718;2022-07-29T02:35:08;2.10;;;1.42;;
25391;SDS011;13329;48.402;11.718;2022-07-29T02:37:33;4.47;;;1.90;;
25391;SDS011;13329;48.402;11.718;2022-07-29T02:39:58;2.15;;;1.55;;
25391;SDS011;13329;48.402;11.718;2022-07-29T02:42:24;1.48;;;1.38;;
25391;SDS011;13329;48.402;11.718;2022-07-29T02:44:51;3.38;;;1.42;;
25391;SDS011;13329;48.402;11.718;2022-07-29T02:47:24;1.98;;;1.55;;
25391;SDS011;13329;48.402;11.718;2022-07-29T02:52:37;3.50;;;1.65;;
25391;SDS011;13329;48.402;11.718;2022-07-29T02:55:15;3.00;;;1.67;;
25391;SDS011;13329;48.402;11.718;2022-07-29T02:57:42;2.88;;;1.45;;
25391;SDS011;13329;48.402;11.718;2022-07-29T03:00:08;3.22;;;1.80;;
25391;SDS011;13329;48.402;11.718;2022-07-29T03:02:38;2.25;;;1.80;;
25391;SDS011;13329;48.402;11.718;2022-07-29T03:05:05;2.58;;;1.83;;
25391;SDS011;13329;48.402;11.718;2022-07-29T03:07:31;2.60;;;1.70;;
25391;SDS011;13329;48.402;11.718;2022-07-29T03:09:57;2.70;;;1.80;;
25391;SDS011;13329;48.402;11.718;2022-07-29T03:12:23;2.60;;;1.77;;
25391;SDS011;13329;48.402;11.718;2022-07-29T03:14:48;3.85;;;1.65;;
25391;SDS011;13329;48.402;11.718;2022-07-29T03:17:13;2.35;;;1.70;;
25391;SDS011;13329;48.402;11.718;2022-07-29T03:19:39;2.22;;;1.48;;
25391;SDS011;13329;48.402;11.718;2022-07-29T03:22:04;3.77;;;1.67;;
25391;SDS011;13329;48.402;11.718;2022-07-29T03:24:31;2.83;;;2.00;;
25391;SDS011;13329;48.402;11.718;2022-07-29T03:26:56;2.10;;;1.80;;
25391;SDS011;13329;48.402;11.718;2022-07-29T03:29:22;4.05;;;1.60;;
25391;SDS011;13329;48.402;11.718;2022-07-29T03:31:48;3.00;;;1.50;;
25391;SDS011;13329;48.402;11.718;2022-07-29T03:34:13;2.00;;;1.50;;
25391;SDS011;13329;48.402;11.718;2022-07-29T03:36:38;2.67;;;1.80;;
25391;SDS011;13329;48.402;11.718;2022-07-29T03:39:04;2.08;;;1.55;;
25391;SDS011;13329;48.402;11.718;2022-07-29T03:41:29;3.40;;;1.60;;
25391;SDS011;13329;48.402;11.718;2022-07-29T03:43:55;2.75;;;1.70;;
25391;SDS011;13329;48.402;11.718;2022-07-29T03:46:21;2.13;;;1.48;;
25391;SDS011;13329;48.402;11.718;2022-07-29T03:48:48;2.60;;;1.67;;
25391;SDS011;13329;48.402;11.718;2022-07-29T03:51:13;4.50;;;1.70;;
25391;SDS011;13329;48.402;11.718;2022-07-29T03:53:39;2.33;;;1.55;;
25391;SDS011;13329;48.402;11.718;2022-07-29T03:56:05;6.60;;;1.85;;
25391;SDS011;13329;48.402;11.718;2022-07-29T03:58:31;2.40;;;1.50;;
25391;SDS011;13329;48.402;11.718;2022-07-29T04:00:56;2.30;;;1.83;;
25391;SDS011;13329;48.402;11.718;2022-07-29T04:03:22;2.92;;;1.63;;
25391;SDS011;13329;48.402;11.718;2022-07-29T04:06:03;3.92;;;1.90;;
25391;SDS011;13329;48.402;11.718;2022-07-29T04:08:30;4.38;;;1.73;;
25391;SDS011;13329;48.402;11.718;2022-07-29T04:10:56;2.17;;;1.60;;
25391;SDS011;13329;48.402;11.718;2022-07-29T04:13:21;2.67;;;1.77;;
25391;SDS011;13329;48.402;11.718;2022-07-29T04:15:46;3.17;;;1.63;;
25391;SDS011;13329;48.402;11.718;2022-07-29T04:18:11;1.55;;;1.23;;
25391;SDS011;13329;48.402;11.718;2022-07-29T04:20:37;3.87;;;1.70;;
25391;SDS011;13329;48.402;11.718;2022-07-29T04:23:02;2.43;;;1.67;;
25391;SDS011;13329;48.402;11.718;2022-07-29T04:25:27;2.53;;;1.87;;
25391;SDS011;13329;48.402;11.718;2022-07-29T04:27:52;3.73;;;2.00;;
25391;SDS011;13329;48.402;11.718;2022-07-29T04:30:26;2.75;;;1.80;;
25391;SDS011;13329;48.402;11.718;2022-07-29T04:32:52;2.53;;;1.92;;
25391;SDS011;13329;48.402;11.718;2022-07-29T04:35:17;2.50;;;1.70;;
25391;SDS011;13329;48.402;11.718;2022-07-29T04:37:43;3.63;;;1.67;;
25391;SDS011;13329;48.402;11.718;2022-07-29T04:40:08;3.53;;;1.73;;
25391;SDS011;13329;48.402;11.718;2022-07-29T04:42:33;2.38;;;1.73;;
25391;SDS011;13329;48.402;11.718;2022-07-29T04:44:58;3.78;;;1.70;;
25391;SDS011;13329;48.402;11.718;2022-07-29T04:47:24;2.50;;;1.73;;
25391;SDS011;13329;48.402;11.718;2022-07-29T04:49:49;2.30;;;1.70;;
25391;SDS011;13329;48.402;11.718;2022-07-29T04:52:14;4.10;;;2.10;;
25391;SDS011;13329;48.402;11.718;2022-07-29T04:54:39;6.03;;;1.70;;
25391;SDS011;13329;48.402;11.718;2022-07-29T04:57:04;2.10;;;1.90;;
25391;SDS011;13329;48.402;11.718;2022-07-29T04:59:30;4.90;;;2.25;;
25391;SDS011;13329;48.402;11.718;2022-07-29T05:01:55;3.67;;;2.20;;
25391;SDS011;13329;48.402;11.718;2022-07-29T05:04:20;4.60;;;2.35;;
25391;SDS011;13329;48.402;11.718;2022-07-29T05:06:45;4.93;;;2.17;;
25391;SDS011;13329;48.402;11.718;2022-07-29T05:09:10;4.93;;;2.30;;
25391;SDS011;13329;48.402;11.718;2022-07-29T05:11:35;4.85;;;2.10;;
25391;SDS011;13329;48.402;11.718;2022-07-29T05:14:00;3.13;;;2.00;;
25391;SDS011;13329;48.402;11.718;2022-07-29T05:16:26;3.65;;;2.20;;
25391;SDS011;13329;48.402;11.718;2022-07-29T05:18:51;3.92;;;2.38;;
25391;SDS011;13329;48.402;11.718;2022-07-29T05:21:16;3.83;;;2.47;;
25391;SDS011;13329;48.402;11.718;2022-07-29T05:23:41;3.37;;;2.10;;
25391;SDS011;13329;48.402;11.718;2022-07-29T05:26:07;3.47;;;1.97;;
25391;SDS011;13329;48.402;11.718;2022-07-29T05:28:35;3.37;;;1.90;;
25391;SDS011;13329;48.402;11.718;2022-07-29T05:31:00;2.58;;;1.85;;
25391;SDS011;13329;48.402;11.718;2022-07-29T05:33:25;2.97;;;1.80;;
25391;SDS011;13329;48.402;11.718;2022-07-29T05:35:50;2.92;;;1.75;;
25391;SDS011;13329;48.402;11.718;2022-07-29T05:38:16;3.53;;;1.80;;
25391;SDS011;13329;48.402;11.718;2022-07-29T05:40:41;2.53;;;1.70;;
25391;SDS011;13329;48.402;11.718;2022-07-29T05:43:06;2.33;;;1.60;;
25391;SDS011;13329;48.402;11.718;2022-07-29T05:45:31;1.98;;;1.50;;
25391;SDS011;13329;48.402;11.718;2022-07-29T05:47:57;2.00;;;1.63;;
25391;SDS011;13329;48.402;11.718;2022-07-29T05:50:22;3.42;;;1.60;;
25391;SDS011;13329;48.402;11.718;2022-07-29T05:52:47;2.63;;;1.60;;
25391;SDS011;13329;48.402;11.718;2022-07-29T05:55:12;1.92;;;1.27;;
25391;SDS011;13329;48.402;11.718;2022-07-29T05:57:37;3.50;;;1.50;;
25391;SDS011;13329;48.402;11.718;2022-07-29T06:00:02;2.08;;;1.13;;
25391;SDS011;13329;48.402;11.718;2022-07-29T06:02:28;2.53;;;1.27;;
25391;SDS011;13329;48.402;11.718;2022-07-29T06:04:53;1.60;;;1.13;;
25391;SDS011;13329;48.402;11.718;2022-07-29T06:07:18;2.17;;;1.60;;
25391;SDS011;13329;48.402;11.718;2022-07-29T06:09:44;2.05;;;1.40;;
25391;SDS011;13329;48.402;11.718;2022-07-29T06:12:09;2.00;;;1.30;;
25391;SDS011;13329;48.402;11.718;2022-07-29T06:14:34;1.77;;;1.40;;
25391;SDS011;13329;48.402;11.718;2022-07-29T06:17:00;1.65;;;1.17;;
25391;SDS011;13329;48.402;11.718;2022-07-29T06:19:25;2.03;;;1.20;;
25391;SDS011;13329;48.402;11.718;2022-07-29T06:21:50;1.88;;;1.30;;
25391;SDS011;13329;48.402;11.718;2022-07-29T06:24:16;2.57;;;1.40;;
25391;SDS011;13329;48.402;11.718;2022-07-29T06:26:41;1.88;;;1.13;;
25391;SDS011;13329;48.402;11.718;2022-07-29T06:29:07;3.13;;;1.15;;
25391;SDS011;13329;48.402;11.718;2022-07-29T06:31:33;1.05;;;0.93;;
25391;SDS011;13329;48.402;11.718;2022-07-29T06:33:58;1.70;;;0.88;;
25391;SDS011;13329;48.402;11.718;2022-07-29T06:36:23;2.13;;;1.27;;
25391;SDS011;13329;48.402;11.718;2022-07-29T06:38:48;1.93;;;1.17;;
25391;SDS011;13329;48.402;11.718;2022-07-29T06:41:14;1.47;;;1.10;;
25391;SDS011;13329;48.402;11.718;2022-07-29T06:43:41;3.90;;;1.25;;
25391;SDS011;13329;48.402;11.718;2022-07-29T06:46:07;1.50;;;1.00;;
25391;SDS011;13329;48.402;11.718;2022-07-29T06:48:32;1.77;;;1.10;;
25391;SDS011;13329;48.402;11.718;2022-07-29T06:50:58;1.38;;;1.02;;
25391;SDS011;13329;48.402;11.718;2022-07-29T06:53:23;1.48;;;1.10;;
25391;SDS011;13329;48.402;11.718;2022-07-29T06:55:49;3.13;;;1.00;;
25391;SDS011;13329;48.402;11.718;2022-07-29T06:58:14;1.83;;;1.00;;
25391;SDS011;13329;48.402;11.718;2022-07-29T07:00:41;1.25;;;0.98;;
25391;SDS011;13329;48.402;11.718;2022-07-29T07:03:06;1.52;;;1.00;;
25391;SDS011;13329;48.402;11.718;2022-07-29T07:05:31;1.55;;;1.00;;
25391;SDS011;13329;48.402;11.718;2022-07-29T07:07:56;1.37;;;0.93;;
25391;SDS011;13329;48.402;11.718;2022-07-29T07:10:21;1.40;;;0.90;;
25391;SDS011;13329;48.402;11.718;2022-07-29T07:12:47;1.30;;;1.10;;
25391;SDS011;13329;48.402;11.718;2022-07-29T07:15:12;1.75;;;1.25;;
25391;SDS011;13329;48.402;11.718;2022-07-29T07:17:37;2.53;;;1.10;;
25391;SDS011;13329;48.402;11.718;2022-07-29T07:20:03;2.78;;;1.17;;
25391;SDS011;13329;48.402;11.718;2022-07-29T07:22:29;1.65;;;1.00;;
25391;SDS011;13329;48.402;11.718;2022-07-29T07:24:54;2.72;;;1.15;;
25391;SDS011;13329;48.402;11.718;2022-07-29T07:27:19;2.72;;;1.10;;
25391;SDS011;13329;48.402;11.718;2022-07-29T07:29:45;2.20;;;1.25;;
25391;SDS011;13329;48.402;11.718;2022-07-29T07:32:10;1.95;;;1.23;;
25391;SDS011;13329;48.402;11.718;2022-07-29T07:34:35;1.80;;;1.17;;
25391;SDS011;13329;48.402;11.718;2022-07-29T07:37:00;2.07;;;1.30;;
25391;SDS011;13329;48.402;11.718;2022-07-29T07:39:25;1.40;;;1.13;;
25391;SDS011;13329;48.402;11.718;2022-07-29T07:41:51;2.47;;;1.02;;
25391;SDS011;13329;48.402;11.718;2022-07-29T07:44:16;1.45;;;1.00;;
25391;SDS011;13329;48.402;11.718;2022-07-29T07:46:42;1.67;;;1.00;;
25391;SDS011;13329;48.402;11.718;2022-07-29T07:49:07;1.50;;;1.05;;
25391;SDS011;13329;48.402;11.718;2022-07-29T07:51:32;1.40;;;1.20;;
25391;SDS011;13329;48.402;11.718;2022-07-29T07:53:57;2.05;;;1.10;;
25391;SDS011;13329;48.402;11.718;2022-07-29T07:56:22;2.37;;;1.30;;
25391;SDS011;13329;48.402;11.718;2022-07-29T07:58:47;1.75;;;1.10;;
25391;SDS011;13329;48.402;11.718;2022-07-29T08:01:12;1.70;;;1.10;;
25391;SDS011;13329;48.402;11.718;2022-07-29T08:03:38;1.83;;;1.20;;
25391;SDS011;13329;48.402;11.718;2022-07-29T08:06:03;4.75;;;1.20;;
25391;SDS011;13329;48.402;11.718;2022-07-29T08:08:29;1.50;;;0.80;;
25391;SDS011;13329;48.402;11.718;2022-07-29T08:10:54;1.57;;;1.00;;
25391;SDS011;13329;48.402;11.718;2022-07-29T08:13:23;1.52;;;1.00;;
25391;SDS011;13329;48.402;11.718;2022-07-29T08:15:48;1.45;;;0.95;;
25391;SDS011;13329;48.402;11.718;2022-07-29T08:20:47;1.85;;;1.08;;
25391;SDS011;13329;48.402;11.718;2022-07-29T08:23:12;2.20;;;0.77;;
25391;SDS011;13329;48.402;11.718;2022-07-29T08:25:37;1.03;;;0.83;;
25391;SDS011;13329;48.402;11.718;2022-07-29T08:28:05;1.95;;;1.13;;
25391;SDS011;13329;48.402;11.718;2022-07-29T08:30:30;3.13;;;1.20;;
25391;SDS011;13329;48.402;11.718;2022-07-29T08:32:57;2.65;;;1.00;;
25391;SDS011;13329;48.402;11.718;2022-07-29T08:35:22;1.23;;;0.93;;
25391;SDS011;13329;48.402;11.718;2022-07-29T08:37:48;1.42;;;0.98;;
25391;SDS011;13329;48.402;11.718;2022-07-29T08:40:13;3.23;;;1.17;;
25391;SDS011;13329;48.402;11.718;2022-07-29T08:42:39;1.90;;;1.10;;
25391;SDS011;13329;48.402;11.718;2022-07-29T08:45:04;2.17;;;1.23;;
25391;SDS011;13329;48.402;11.718;2022-07-29T08:47:29;2.15;;;1.25;;
25391;SDS011;13329;48.402;11.718;2022-07-29T08:49:55;1.92;;;1.00;;
25391;SDS011;13329;48.402;11.718;2022-07-29T08:52:20;1.70;;;1.08;;
25391;SDS011;13329;48.402;11.718;2022-07-29T08:54:45;3.53;;;1.15;;
25391;SDS011;13329;48.402;11.718;2022-07-29T08:57:14;1.58;;;1.02;;
25391;SDS011;13329;48.402;11.718;2022-07-29T08:59:40;2.05;;;1.15;;
25391;SDS011;13329;48.402;11.718;2022-07-29T09:02:08;1.83;;;1.23;;
25391;SDS011;13329;48.402;11.718;2022-07-29T09:04:37;2.55;;;1.25;;
25391;SDS011;13329;48.402;11.718;2022-07-29T09:07:04;2.10;;;1.30;;
25391;SDS011;13329;48.402;11.718;2022-07-29T09:09:29;1.80;;;1.17;;
25391;SDS011;13329;48.402;11.718;2022-07-29T09:11:54;2.13;;;1.20;;
25391;SDS011;13329;48.402;11.718;2022-07-29T09:14:20;1.87;;;1.10;;
25391;SDS011;13329;48.402;11.718;2022-07-29T09:16:45;2.67;;;0.97;;
25391;SDS011;13329;48.402;11.718;2022-07-29T09:19:27;2.58;;;1.42;;
25391;SDS011;13329;48.402;11.718;2022-07-29T09:21:53;2.42;;;1.27;;
25391;SDS011;13329;48.402;11.718;2022-07-29T09:24:26;1.60;;;0.95;;
25391;SDS011;13329;48.402;11.718;2022-07-29T09:26:51;1.45;;;0.98;;
25391;SDS011;13329;48.402;11.718;2022-07-29T09:29:20;7.70;;;0.90;;
25391;SDS011;13329;48.402;11.718;2022-07-29T09:31:51;2.67;;;0.98;;
25391;SDS011;13329;48.402;11.718;2022-07-29T09:34:20;2.42;;;1.10;;
25391;SDS011;13329;48.402;11.718;2022-07-29T09:36:46;1.00;;;0.77;;
25391;SDS011;13329;48.402;11.718;2022-07-29T09:39:12;4.82;;;1.27;;
25391;SDS011;13329;48.402;11.718;2022-07-29T09:41:51;1.35;;;0.95;;
25391;SDS011;13329;48.402;11.718;2022-07-29T09:44:18;1.60;;;1.15;;
25391;SDS011;13329;48.402;11.718;2022-07-29T09:46:56;1.77;;;1.20;;
25391;SDS011;13329;48.402;11.718;2022-07-29T09:49:21;0.90;;;0.90;;
25391;SDS011;13329;48.402;11.718;2022-07-29T09:51:46;2.67;;;1.30;;
25391;SDS011;13329;48.402;11.718;2022-07-29T09:54:22;2.75;;;1.10;;
25391;SDS011;13329;48.402;11.718;2022-07-29T09:56:48;2.85;;;1.13;;
25391;SDS011;13329;48.402;11.718;2022-07-29T09:59:13;2.03;;;1.00;;
25391;SDS011;13329;48.402;11.718;2022-07-29T10:01:38;1.30;;;1.00;;
25391;SDS011;13329;48.402;11.718;2022-07-29T10:04:04;1.37;;;1.10;;
25391;SDS011;13329;48.402;11.718;2022-07-29T10:06:29;1.67;;;1.10;;
25391;SDS011;13329;48.402;11.718;2022-07-29T10:08:54;1.73;;;0.97;;
25391;SDS011;13329;48.402;11.718;2022-07-29T10:11:19;1.40;;;1.13;;
25391;SDS011;13329;48.402;11.718;2022-07-29T10:13:45;1.67;;;1.23;;
25391;SDS011;13329;48.402;11.718;2022-07-29T10:16:11;2.08;;;1.35;;
25391;SDS011;13329;48.402;11.718;2022-07-29T10:18:38;1.88;;;1.25;;
25391;SDS011;13329;48.402;11.718;2022-07-29T10:21:03;2.22;;;1.42;;
25391;SDS011;13329;48.402;11.718;2022-07-29T10:23:29;1.80;;;1.20;;
25391;SDS011;13329;48.402;11.718;2022-07-29T10:25:54;2.83;;;1.17;;
25391;SDS011;13329;48.402;11.718;2022-07-29T10:28:19;1.55;;;1.40;;
25391;SDS011;13329;48.402;11.718;2022-07-29T10:30:45;2.47;;;1.40;;
25391;SDS011;13329;48.402;11.718;2022-07-29T10:33:24;1.45;;;1.33;;
25391;SDS011;13329;48.402;11.718;2022-07-29T10:35:57;2.33;;;1.60;;
25391;SDS011;13329;48.402;11.718;2022-07-29T10:41:17;2.42;;;1.70;;
25391;SDS011;13329;48.402;11.718;2022-07-29T10:43:53;2.05;;;1.30;;
25391;SDS011;13329;48.402;11.718;2022-07-29T10:46:19;1.73;;;1.40;;
25391;SDS011;13329;48.402;11.718;2022-07-29T10:51:50;1.45;;;1.15;;
25391;SDS011;13329;48.402;11.718;2022-07-29T10:54:13;2.28;;;1.50;;
25391;SDS011;13329;48.402;11.718;2022-07-29T10:56:39;2.53;;;1.80;;
25391;SDS011;13329;48.402;11.718;2022-07-29T11:01:42;3.05;;;1.65;;
25391;SDS011;13329;48.402;11.718;2022-07-29T11:04:07;1.63;;;1.43;;
25391;SDS011;13329;48.402;11.718;2022-07-29T11:09:17;2.08;;;1.10;;
25391;SDS011;13329;48.402;11.718;2022-07-29T11:11:45;6.28;;;1.60;;
25391;SDS011;13329;48.402;11.718;2022-07-29T11:14:11;2.28;;;1.45;;
25391;SDS011;13329;48.402;11.718;2022-07-29T11:16:57;3.30;;;1.60;;
25391;SDS011;13329;48.402;11.718;2022-07-29T11:19:22;1.85;;;1.30;;
25391;SDS011;13329;48.402;11.718;2022-07-29T11:21:48;2.73;;;1.77;;
25391;SDS011;13329;48.402;11.718;2022-07-29T11:24:19;2.60;;;1.58;;
25391;SDS011;13329;48.402;11.718;2022-07-29T11:26:45;1.92;;;1.60;;
25391;SDS011;13329;48.402;11.718;2022-07-29T11:29:30;4.60;;;1.75;;
25391;SDS011;13329;48.402;11.718;2022-07-29T11:32:07;10.32;;;1.10;;
25391;SDS011;13329;48.402;11.718;2022-07-29T11:34:33;5.82;;;1.65;;
25391;SDS011;13329;48.402;11.718;2022-07-29T11:47:25;2.00;;;1.63;;
25391;SDS011;13329;48.402;11.718;2022-07-29T11:49:52;3.78;;;2.08;;
25391;SDS011;13329;48.402;11.718;2022-07-29T11:52:18;3.80;;;1.55;;
25391;SDS011;13329;48.402;11.718;2022-07-29T11:54:43;2.47;;;1.65;;
25391;SDS011;13329;48.402;11.718;2022-07-29T11:57:09;2.38;;;1.65;;
25391;SDS011;13329;48.402;11.718;2022-07-29T11:59:40;2.03;;;1.60;;
25391;SDS011;13329;48.402;11.718;2022-07-29T12:02:06;2.80;;;1.83;;
25391;SDS011;13329;48.402;11.718;2022-07-29T12:04:31;3.87;;;1.77;;
25391;SDS011;13329;48.402;11.718;2022-07-29T12:06:56;2.30;;;1.70;;
25391;SDS011;13329;48.402;11.718;2022-07-29T12:09:22;3.20;;;1.60;;
25391;SDS011;13329;48.402;11.718;2022-07-29T12:11:48;2.47;;;1.80;;
25391;SDS011;13329;48.402;11.718;2022-07-29T12:14:29;1.90;;;1.63;;
25391;SDS011;13329;48.402;11.718;2022-07-29T12:16:55;3.85;;;1.60;;
25391;SDS011;13329;48.402;11.718;2022-07-29T12:19:20;2.03;;;1.65;;
25391;SDS011;13329;48.402;11.718;2022-07-29T12:21:49;2.30;;;1.70;;
25391;SDS011;13329;48.402;11.718;2022-07-29T12:24:16;3.33;;;1.80;;
25391;SDS011;13329;48.402;11.718;2022-07-29T12:26:57;1.75;;;1.50;;
25391;SDS011;13329;48.402;11.718;2022-07-29T12:29:23;1.60;;;1.40;;
25391;SDS011;13329;48.402;11.718;2022-07-29T12:31:52;1.70;;;1.60;;
25391;SDS011;13329;48.402;11.718;2022-07-29T12:34:19;4.13;;;1.75;;
25391;SDS011;13329;48.402;11.718;2022-07-29T12:36:45;3.85;;;2.08;;
25391;SDS011;13329;48.402;11.718;2022-07-29T12:39:10;3.13;;;1.70;;
25391;SDS011;13329;48.402;11.718;2022-07-29T12:41:35;2.53;;;1.53;;
25391;SDS011;13329;48.402;11.718;2022-07-29T12:44:00;1.93;;;1.13;;
25391;SDS011;13329;48.402;11.718;2022-07-29T12:46:26;2.53;;;1.60;;
25391;SDS011;13329;48.402;11.718;2022-07-29T12:48:52;1.73;;;1.30;;
25391;SDS011;13329;48.402;11.718;2022-07-29T12:51:34;2.05;;;1.17;;
25391;SDS011;13329;48.402;11.718;2022-07-29T12:54:09;2.83;;;1.08;;
25391;SDS011;13329;48.402;11.718;2022-07-29T12:56:35;1.98;;;1.40;;
25391;SDS011;13329;48.402;11.718;2022-07-29T12:59:00;1.23;;;0.73;;
25391;SDS011;13329;48.402;11.718;2022-07-29T13:01:36;7.55;;;1.65;;
25391;SDS011;13329;48.402;11.718;2022-07-29T13:04:01;2.15;;;1.30;;
25391;SDS011;13329;48.402;11.718;2022-07-29T13:06:31;2.17;;;1.40;;
25391;SDS011;13329;48.402;11.718;2022-07-29T13:14:02;1.65;;;1.25;;
25391;SDS011;13329;48.402;11.718;2022-07-29T13:16:28;2.78;;;1.35;;
25391;SDS011;13329;48.402;11.718;2022-07-29T13:19:10;3.13;;;1.13;;
25391;SDS011;13329;48.402;11.718;2022-07-29T13:21:36;1.60;;;1.23;;
25391;SDS011;13329;48.402;11.718;2022-07-29T13:24:01;3.00;;;1.40;;
25391;SDS011;13329;48.402;11.718;2022-07-29T13:26:27;2.97;;;1.45;;
25391;SDS011;13329;48.402;11.718;2022-07-29T13:28:52;1.52;;;1.30;;
25391;SDS011;13329;48.402;11.718;2022-07-29T13:31:18;2.10;;;1.40;;
25391;SDS011;13329;48.402;11.718;2022-07-29T13:33:43;3.72;;;1.60;;
25391;SDS011;13329;48.402;11.718;2022-07-29T13:36:08;1.83;;;1.40;;
25391;SDS011;13329;48.402;11.718;2022-07-29T13:38:33;2.90;;;1.50;;
25391;SDS011;13329;48.402;11.718;2022-07-29T13:40:59;2.65;;;1.50;;
25391;SDS011;13329;48.402;11.718;2022-07-29T13:43:24;4.03;;;1.67;;
25391;SDS011;13329;48.402;11.718;2022-07-29T13:45:49;2.97;;;1.70;;
25391;SDS011;13329;48.402;11.718;2022-07-29T13:48:14;2.10;;;1.52;;
25391;SDS011;13329;48.402;11.718;2022-07-29T13:50:39;2.70;;;1.70;;
25391;SDS011;13329;48.402;11.718;2022-07-29T13:53:04;1.63;;;1.33;;
25391;SDS011;13329;48.402;11.718;2022-07-29T13:55:30;2.77;;;1.33;;
25391;SDS011;13329;48.402;11.718;2022-07-29T13:57:55;1.70;;;1.47;;
25391;SDS011;13329;48.402;11.718;2022-07-29T14:00:20;2.53;;;1.40;;
25391;SDS011;13329;48.402;11.718;2022-07-29T14:02:45;2.58;;;1.63;;
25391;SDS011;13329;48.402;11.718;2022-07-29T14:05:10;1.83;;;1.30;;
25391;SDS011;13329;48.402;11.718;2022-07-29T14:07:36;3.67;;;1.60;;
25391;SDS011;13329;48.402;11.718;2022-07-29T14:10:03;2.40;;;1.45;;
25391;SDS011;13329;48.402;11.718;2022-07-29T14:12:28;1.38;;;1.08;;
25391;SDS011;13329;48.402;11.718;2022-07-29T14:14:54;1.92;;;1.40;;
25391;SDS011;13329;48.402;11.718;2022-07-29T14:17:19;1.43;;;1.30;;
25391;SDS011;13329;48.402;11.718;2022-07-29T14:19:44;2.40;;;1.60;;
25391;SDS011;13329;48.402;11.718;2022-07-29T14:22:09;1.63;;;1.40;;
25391;SDS011;13329;48.402;11.718;2022-07-29T14:24:35;2.80;;;1.73;;
25391;SDS011;13329;48.402;11.718;2022-07-29T14:27:00;5.47;;;1.75;;
25391;SDS011;13329;48.402;11.718;2022-07-29T14:29:26;2.73;;;1.10;;
25391;SDS011;13329;48.402;11.718;2022-07-29T14:31:51;1.65;;;1.20;;
25391;SDS011;13329;48.402;11.718;2022-07-29T14:34:16;2.47;;;1.30;;
25391;SDS011;13329;48.402;11.718;2022-07-29T14:36:42;2.77;;;1.43;;
25391;SDS011;13329;48.402;11.718;2022-07-29T14:39:07;2.83;;;1.58;;
25391;SDS011;13329;48.402;11.718;2022-07-29T14:41:32;2.97;;;1.47;;
25391;SDS011;13329;48.402;11.718;2022-07-29T14:43:57;2.20;;;1.50;;
25391;SDS011;13329;48.402;11.718;2022-07-29T14:46:25;1.90;;;1.40;;
25391;SDS011;13329;48.402;11.718;2022-07-29T14:48:50;2.63;;;1.77;;
25391;SDS011;13329;48.402;11.718;2022-07-29T14:51:15;1.98;;;1.48;;
25391;SDS011;13329;48.402;11.718;2022-07-29T14:53:40;1.90;;;1.40;;
25391;SDS011;13329;48.402;11.718;2022-07-29T14:56:06;2.30;;;1.60;;
25391;SDS011;13329;48.402;11.718;2022-07-29T14:58:31;2.37;;;1.30;;
25391;SDS011;13329;48.402;11.718;2022-07-29T15:00:56;2.50;;;1.40;;
25391;SDS011;13329;48.402;11.718;2022-07-29T15:03:21;3.38;;;1.70;;
25391;SDS011;13329;48.402;11.718;2022-07-29T15:05:46;2.20;;;1.50;;
25391;SDS011;13329;48.402;11.718;2022-07-29T15:08:11;1.38;;;0.90;;
25391;SDS011;13329;48.402;11.718;2022-07-29T15:10:37;1.90;;;1.33;;